Time;durP1;ratioP1;P1;durP2;ratioP2;P2;SDS_P1;SDS_P2;PMS_P1;PMS_P2;Temp;Humidity;BMP_temperature;BMP_pressure;BME280_temperature;BME280_humidity;BME280_pressure;Samples;Min_cycle;Max_cycle;Signal;HPM_P1;HPM_P2
2022/07/07 00:01:56;;;;;;;7.45;1.60;;;;;;;;;;6163224;23;20000;-67
2022/07/07 00:04:22;;;;;;;8.50;1.98;;;;;;;;;;6188386;23;20558;-67
2022/07/07 00:06:48;;;;;;;8.85;1.70;;;;;;;;;;6191258;23;20008;-67
2022/07/07 00:09:15;;;;;;;7.60;1.60;;;;;;;;;;6187986;23;20008;-67
2022/07/07 00:11:41;;;;;;;8.38;1.60;;;;;;;;;;6190815;23;20009;-67
2022/07/07 00:14:08;;;;;;;7.57;1.83;;;;;;;;;;6163043;23;20020;-67
2022/07/07 00:16:35;;;;;;;7.38;1.80;;;;;;;;;;6188526;23;20079;-67
2022/07/07 00:19:01;;;;;;;7.80;1.83;;;;;;;;;;6164416;23;20096;-68
2022/07/07 00:21:28;;;;;;;11.85;2.00;;;;;;;;;;6168692;23;20790;-67
2022/07/07 00:23:55;;;;;;;8.20;1.90;;;;;;;;;;6120682;23;20087;-66
2022/07/07 00:26:21;;;;;;;10.73;1.90;;;;;;;;;;6147491;23;20005;-68
2022/07/07 00:28:49;;;;;;;9.77;1.90;;;;;;;;;;6123960;23;20008;-66
2022/07/07 00:31:15;;;;;;;8.57;1.80;;;;;;;;;;6151082;23;20008;-67
2022/07/07 00:33:41;;;;;;;7.43;1.80;;;;;;;;;;6151881;23;20898;-66
2022/07/07 00:36:08;;;;;;;10.13;1.90;;;;;;;;;;6152497;23;20000;-66
2022/07/07 00:38:34;;;;;;;8.95;1.80;;;;;;;;;;6119534;23;20459;-66
2022/07/07 00:41:01;;;;;;;7.57;1.73;;;;;;;;;;6150790;23;20039;-66
2022/07/07 00:43:27;;;;;;;9.65;2.00;;;;;;;;;;6154950;23;20444;-66
2022/07/07 00:45:53;;;;;;;7.43;1.83;;;;;;;;;;6185006;23;20119;-69
2022/07/07 00:48:21;;;;;;;7.70;1.80;;;;;;;;;;6182413;23;20095;-68
2022/07/07 00:50:48;;;;;;;8.93;2.00;;;;;;;;;;6158006;23;20512;-69
2022/07/07 00:53:15;;;;;;;9.75;1.70;;;;;;;;;;6182887;23;20020;-69
2022/07/07 00:55:42;;;;;;;6.55;1.50;;;;;;;;;;6157171;23;20004;-69
2022/07/07 00:58:08;;;;;;;9.30;1.85;;;;;;;;;;6185239;23;20004;-68
2022/07/07 01:00:35;;;;;;;10.82;2.13;;;;;;;;;;6181964;23;20062;-68
2022/07/07 01:03:01;;;;;;;8.35;1.90;;;;;;;;;;6185334;23;20318;-68
2022/07/07 01:05:28;;;;;;;8.00;1.58;;;;;;;;;;6154966;23;20520;-68
2022/07/07 01:07:55;;;;;;;8.18;1.70;;;;;;;;;;6184808;23;20016;-68
2022/07/07 01:10:21;;;;;;;10.73;1.95;;;;;;;;;;6182509;23;20004;-69
2022/07/07 01:12:47;;;;;;;8.77;1.85;;;;;;;;;;6184820;23;20062;-67
2022/07/07 01:15:14;;;;;;;8.73;1.80;;;;;;;;;;6182259;23;20009;-67
2022/07/07 01:17:40;;;;;;;7.18;1.73;;;;;;;;;;6185176;23;20012;-67
2022/07/07 01:20:07;;;;;;;11.95;1.80;;;;;;;;;;6186129;23;20004;-67
2022/07/07 01:22:37;;;;;;;10.77;1.85;;;;;;;;;;6153764;23;20400;-68
2022/07/07 01:25:04;;;;;;;7.22;1.95;;;;;;;;;;6154619;23;20336;-66
2022/07/07 01:27:30;;;;;;;7.78;1.70;;;;;;;;;;6185029;23;20128;-67
2022/07/07 01:29:57;;;;;;;8.57;1.80;;;;;;;;;;6185489;23;20004;-69
2022/07/07 01:32:24;;;;;;;8.00;1.85;;;;;;;;;;6183030;23;20004;-66
2022/07/07 01:34:51;;;;;;;8.77;2.00;;;;;;;;;;6184037;23;20432;-68
2022/07/07 01:37:20;;;;;;;7.55;1.73;;;;;;;;;;6182000;23;20028;-68
2022/07/07 01:39:46;;;;;;;8.07;1.92;;;;;;;;;;6183039;23;20000;-69
2022/07/07 01:42:13;;;;;;;6.43;1.90;;;;;;;;;;6183544;23;20100;-67
2022/07/07 01:44:40;;;;;;;8.85;2.05;;;;;;;;;;6143054;23;20102;-67
2022/07/07 01:47:07;;;;;;;10.15;2.15;;;;;;;;;;6157444;23;20091;-67
2022/07/07 01:49:33;;;;;;;7.50;1.90;;;;;;;;;;6188614;23;20005;-67
2022/07/07 01:52:00;;;;;;;10.18;1.80;;;;;;;;;;6164631;23;20076;-67
2022/07/07 01:54:27;;;;;;;9.90;2.10;;;;;;;;;;6161960;23;20452;-67
2022/07/07 01:56:53;;;;;;;6.15;1.77;;;;;;;;;;6165293;23;20420;-67
2022/07/07 01:59:20;;;;;;;6.65;1.67;;;;;;;;;;6189389;23;20511;-67
2022/07/07 02:01:46;;;;;;;10.70;1.88;;;;;;;;;;6163226;23;20055;-67
2022/07/07 02:04:12;;;;;;;9.55;1.98;;;;;;;;;;6189054;23;20012;-67
2022/07/07 02:06:38;;;;;;;11.13;1.95;;;;;;;;;;6198363;23;20004;-67
2022/07/07 02:09:05;;;;;;;8.18;1.83;;;;;;;;;;6191549;23;20015;-67
2022/07/07 02:11:31;;;;;;;8.60;1.70;;;;;;;;;;6162208;23;20013;-67
2022/07/07 02:13:58;;;;;;;7.63;1.98;;;;;;;;;;6191831;23;20444;-67
2022/07/07 02:16:25;;;;;;;7.00;1.75;;;;;;;;;;6161377;23;20020;-67
2022/07/07 02:18:53;;;;;;;7.97;1.90;;;;;;;;;;6191774;23;20483;-67
2022/07/07 02:21:21;;;;;;;8.23;1.92;;;;;;;;;;6171152;23;20084;-68
2022/07/07 02:23:47;;;;;;;8.80;1.80;;;;;;;;;;6153084;23;20038;-67
2022/07/07 02:26:14;;;;;;;9.48;1.52;;;;;;;;;;6149819;23;20067;-69
2022/07/07 02:28:40;;;;;;;10.73;2.08;;;;;;;;;;6149826;23;20008;-69
2022/07/07 02:31:07;;;;;;;8.57;1.88;;;;;;;;;;6150732;23;20004;-68
2022/07/07 02:33:33;;;;;;;9.88;1.92;;;;;;;;;;6157031;23;20000;-68
2022/07/07 02:35:59;;;;;;;10.65;2.22;;;;;;;;;;6129065;23;20681;-69
2022/07/07 02:38:26;;;;;;;12.90;2.50;;;;;;;;;;6148179;23;20090;-66
2022/07/07 02:40:52;;;;;;;11.48;2.15;;;;;;;;;;6124156;23;20428;-68
2022/07/07 02:43:19;;;;;;;12.90;2.25;;;;;;;;;;6126661;23;20090;-66
2022/07/07 02:45:46;;;;;;;12.07;2.47;;;;;;;;;;6189405;23;20020;-66
2022/07/07 02:48:13;;;;;;;10.07;2.22;;;;;;;;;;6183654;23;20020;-67
2022/07/07 02:50:39;;;;;;;8.63;1.80;;;;;;;;;;6185797;23;20012;-67
2022/07/07 02:53:06;;;;;;;10.27;2.10;;;;;;;;;;6188505;23;20005;-67
2022/07/07 02:55:32;;;;;;;9.88;1.88;;;;;;;;;;6187183;23;20051;-66
2022/07/07 02:57:58;;;;;;;8.68;2.00;;;;;;;;;;6187677;23;20011;-68
2022/07/07 03:00:25;;;;;;;7.97;2.17;;;;;;;;;;6185111;23;20357;-67
2022/07/07 03:02:52;;;;;;;9.95;2.10;;;;;;;;;;6183845;23;20001;-67
2022/07/07 03:05:18;;;;;;;11.35;2.25;;;;;;;;;;6185896;23;20012;-67
2022/07/07 03:07:44;;;;;;;11.07;2.03;;;;;;;;;;6162737;23;20208;-67
2022/07/07 03:10:10;;;;;;;8.50;2.08;;;;;;;;;;6187597;23;20001;-67
2022/07/07 03:12:36;;;;;;;9.85;1.90;;;;;;;;;;6187070;23;20008;-67
2022/07/07 03:15:03;;;;;;;10.27;1.98;;;;;;;;;;6188079;23;20054;-67
2022/07/07 03:17:29;;;;;;;9.75;2.10;;;;;;;;;;6183568;23;20011;-67
2022/07/07 03:19:55;;;;;;;6.88;2.08;;;;;;;;;;6187653;23;20055;-67
2022/07/07 03:22:21;;;;;;;8.75;2.10;;;;;;;;;;6184614;23;20077;-67
2022/07/07 03:24:47;;;;;;;9.40;1.90;;;;;;;;;;6188346;23;20100;-67
2022/07/07 03:27:13;;;;;;;11.15;2.47;;;;;;;;;;6185412;23;20008;-67
2022/07/07 03:29:39;;;;;;;8.77;2.05;;;;;;;;;;6186899;23;20341;-67
2022/07/07 03:32:06;;;;;;;8.02;1.88;;;;;;;;;;6185580;23;20344;-67
2022/07/07 03:34:32;;;;;;;6.28;1.83;;;;;;;;;;6184487;23;20004;-67
2022/07/07 03:36:58;;;;;;;8.73;2.10;;;;;;;;;;6187786;23;20413;-67
2022/07/07 03:39:24;;;;;;;9.13;1.95;;;;;;;;;;6156167;23;20012;-67
2022/07/07 03:41:50;;;;;;;10.13;2.00;;;;;;;;;;6185632;23;20470;-67
2022/07/07 03:44:16;;;;;;;10.88;2.13;;;;;;;;;;6147377;23;20493;-67
2022/07/07 03:46:42;;;;;;;8.75;2.05;;;;;;;;;;6120287;23;20034;-66
2022/07/07 03:49:08;;;;;;;8.75;2.00;;;;;;;;;;6190571;23;20367;-66
2022/07/07 03:51:34;;;;;;;8.40;2.22;;;;;;;;;;6188923;23;20058;-66
2022/07/07 03:54:00;;;;;;;9.77;2.17;;;;;;;;;;6163167;23;20508;-66
2022/07/07 03:56:26;;;;;;;10.48;2.33;;;;;;;;;;6188591;23;20172;-66
2022/07/07 03:58:53;;;;;;;9.20;2.00;;;;;;;;;;6190488;23;20008;-66
2022/07/07 04:01:19;;;;;;;7.53;2.08;;;;;;;;;;6188637;23;20000;-66
2022/07/07 04:03:45;;;;;;;9.75;2.00;;;;;;;;;;6163707;23;20789;-66
2022/07/07 04:06:11;;;;;;;9.65;1.70;;;;;;;;;;6188368;23;20082;-66
2022/07/07 04:08:37;;;;;;;9.43;1.95;;;;;;;;;;6189520;23;20011;-66
2022/07/07 04:11:03;;;;;;;8.02;1.98;;;;;;;;;;6163575;23;20634;-66
2022/07/07 04:13:29;;;;;;;9.82;2.35;;;;;;;;;;6188639;23;20023;-66
2022/07/07 04:15:58;;;;;;;8.80;2.00;;;;;;;;;;6190094;23;20035;-69
2022/07/07 04:18:24;;;;;;;8.60;2.10;;;;;;;;;;6187731;23;20463;-68
2022/07/07 04:20:52;;;;;;;8.85;2.10;;;;;;;;;;6178930;23;20005;-68
2022/07/07 04:23:18;;;;;;;11.05;2.10;;;;;;;;;;6150252;23;20736;-68
2022/07/07 04:25:44;;;;;;;7.60;1.90;;;;;;;;;;6147224;23;20005;-66
2022/07/07 04:28:11;;;;;;;10.98;2.10;;;;;;;;;;6148637;23;20022;-68
2022/07/07 04:30:37;;;;;;;15.18;2.60;;;;;;;;;;6152209;23;20444;-67
2022/07/07 04:33:03;;;;;;;9.45;2.40;;;;;;;;;;6146678;23;20311;-66
2022/07/07 04:35:29;;;;;;;12.60;2.70;;;;;;;;;;6149603;23;20413;-67
2022/07/07 04:37:55;;;;;;;12.05;2.45;;;;;;;;;;6147151;23;20020;-68
2022/07/07 04:40:22;;;;;;;13.68;2.17;;;;;;;;;;6121927;23;20111;-67
2022/07/07 04:42:48;;;;;;;10.13;2.45;;;;;;;;;;6123287;23;20269;-67
2022/07/07 04:45:15;;;;;;;10.38;2.25;;;;;;;;;;6177525;23;20352;-67
2022/07/07 04:47:41;;;;;;;13.23;2.80;;;;;;;;;;6185489;23;20016;-67
2022/07/07 04:50:08;;;;;;;10.13;1.98;;;;;;;;;;6186667;23;20329;-67
2022/07/07 04:52:34;;;;;;;14.85;3.30;;;;;;;;;;6183552;23;20000;-67
2022/07/07 04:55:01;;;;;;;10.55;2.55;;;;;;;;;;6184788;23;20380;-67
2022/07/07 04:57:27;;;;;;;9.77;2.35;;;;;;;;;;6182530;23;20016;-68
2022/07/07 04:59:53;;;;;;;13.15;2.80;;;;;;;;;;6184468;23;20312;-67
2022/07/07 05:02:19;;;;;;;14.15;2.88;;;;;;;;;;6155555;23;20036;-68
2022/07/07 05:04:45;;;;;;;10.15;2.00;;;;;;;;;;6157487;23;20009;-67
2022/07/07 05:07:11;;;;;;;16.33;2.50;;;;;;;;;;6160125;23;20016;-67
2022/07/07 05:09:38;;;;;;;12.13;2.38;;;;;;;;;;6161480;23;20015;-67
2022/07/07 05:12:04;;;;;;;10.25;2.63;;;;;;;;;;6184471;23;20543;-66
2022/07/07 05:14:30;;;;;;;8.52;2.28;;;;;;;;;;6154578;23;20107;-67
2022/07/07 05:16:56;;;;;;;11.27;2.55;;;;;;;;;;6187666;23;20008;-67
2022/07/07 05:19:23;;;;;;;14.85;2.70;;;;;;;;;;6184298;23;20163;-68
2022/07/07 05:21:49;;;;;;;12.60;2.35;;;;;;;;;;6186208;23;20012;-68
2022/07/07 05:24:15;;;;;;;12.00;2.40;;;;;;;;;;6185489;23;20009;-68
2022/07/07 05:26:41;;;;;;;13.00;2.60;;;;;;;;;;6159510;23;20028;-68
2022/07/07 05:29:07;;;;;;;13.73;2.53;;;;;;;;;;6186126;23;20009;-67
2022/07/07 05:31:33;;;;;;;10.88;2.70;;;;;;;;;;6157096;23;20825;-67
2022/07/07 05:34:00;;;;;;;14.00;2.47;;;;;;;;;;6187494;23;20009;-67
2022/07/07 05:36:26;;;;;;;9.90;2.33;;;;;;;;;;6184454;23;20127;-68
2022/07/07 05:38:52;;;;;;;9.27;2.17;;;;;;;;;;6186115;23;20054;-67
2022/07/07 05:41:18;;;;;;;10.70;2.47;;;;;;;;;;6185077;23;20310;-68
2022/07/07 05:43:44;;;;;;;14.80;2.55;;;;;;;;;;6183436;23;20009;-68
2022/07/07 05:46:11;;;;;;;14.75;2.38;;;;;;;;;;6150688;23;20147;-67
2022/07/07 05:48:38;;;;;;;10.45;2.40;;;;;;;;;;6180030;23;20461;-68
2022/07/07 05:51:04;;;;;;;12.18;2.67;;;;;;;;;;6192003;23;20011;-67
2022/07/07 05:53:30;;;;;;;13.55;2.60;;;;;;;;;;6161639;23;21061;-67
2022/07/07 05:55:57;;;;;;;10.45;2.17;;;;;;;;;;6191501;23;20005;-68
2022/07/07 05:58:23;;;;;;;10.20;2.75;;;;;;;;;;6162259;23;20455;-67
2022/07/07 06:00:49;;;;;;;9.50;2.47;;;;;;;;;;6190085;23;20016;-67
2022/07/07 06:03:15;;;;;;;13.25;2.88;;;;;;;;;;6189051;23;20622;-68
2022/07/07 06:05:43;;;;;;;14.98;2.33;;;;;;;;;;6164899;23;20012;-67
2022/07/07 06:08:09;;;;;;;19.70;3.17;;;;;;;;;;6164510;23;20610;-67
2022/07/07 06:10:35;;;;;;;14.25;2.05;;;;;;;;;;6189164;23;20005;-67
2022/07/07 06:13:02;;;;;;;14.95;2.40;;;;;;;;;;6191196;23;20436;-67
2022/07/07 06:15:32;;;;;;;13.95;2.75;;;;;;;;;;6187898;23;20005;-67
2022/07/07 06:18:00;;;;;;;11.90;2.33;;;;;;;;;;6190841;23;20005;-67
2022/07/07 06:20:26;;;;;;;10.98;2.03;;;;;;;;;;6184082;23;20011;-68
2022/07/07 06:22:53;;;;;;;9.65;1.70;;;;;;;;;;6151985;23;21013;-67
2022/07/07 06:25:20;;;;;;;9.45;2.00;;;;;;;;;;6150916;23;20528;-69
2022/07/07 06:27:46;;;;;;;8.65;1.75;;;;;;;;;;6121651;23;20036;-67
2022/07/07 06:30:12;;;;;;;9.68;2.20;;;;;;;;;;6149011;23;20012;-68
2022/07/07 06:32:39;;;;;;;10.88;2.05;;;;;;;;;;6150395;23;20023;-68
2022/07/07 06:35:05;;;;;;;12.38;2.15;;;;;;;;;;6147838;23;20516;-66
2022/07/07 06:37:32;;;;;;;10.00;1.90;;;;;;;;;;6152058;23;20871;-66
2022/07/07 06:39:58;;;;;;;15.13;2.17;;;;;;;;;;6152491;23;20475;-66
2022/07/07 06:42:24;;;;;;;13.50;2.15;;;;;;;;;;6146985;23;20118;-69
2022/07/07 06:44:50;;;;;;;13.57;3.55;;;;;;;;;;6175756;23;20354;-68
2022/07/07 06:47:16;;;;;;;13.32;2.55;;;;;;;;;;6182894;23;20040;-67
2022/07/07 06:49:42;;;;;;;10.05;2.05;;;;;;;;;;6186050;23;20012;-67
2022/07/07 06:52:09;;;;;;;10.93;2.05;;;;;;;;;;6187301;23;20438;-67
2022/07/07 06:54:37;;;;;;;11.75;2.85;;;;;;;;;;6184538;23;20494;-66
2022/07/07 06:57:04;;;;;;;9.23;2.00;;;;;;;;;;6183952;23;20493;-67
2022/07/07 06:59:30;;;;;;;6.78;1.80;;;;;;;;;;6184005;23;20717;-70
2022/07/07 07:01:56;;;;;;;11.50;2.22;;;;;;;;;;6185163;23;20005;-67
2022/07/07 07:04:22;;;;;;;7.75;1.70;;;;;;;;;;6183307;23;20097;-67
2022/07/07 07:06:48;;;;;;;6.30;1.63;;;;;;;;;;6186436;23;20501;-67
2022/07/07 07:09:14;;;;;;;8.75;2.15;;;;;;;;;;6183913;23;20009;-67
2022/07/07 07:11:41;;;;;;;10.98;2.13;;;;;;;;;;6185491;23;20407;-68
2022/07/07 07:14:07;;;;;;;9.77;2.20;;;;;;;;;;6185187;23;20008;-67
2022/07/07 07:16:33;;;;;;;14.90;2.10;;;;;;;;;;6182642;23;20004;-67
2022/07/07 07:18:59;;;;;;;11.43;2.17;;;;;;;;;;6184478;23;20036;-67
2022/07/07 07:21:25;;;;;;;13.43;2.22;;;;;;;;;;6183393;23;20067;-67
2022/07/07 07:23:51;;;;;;;13.60;1.90;;;;;;;;;;6157466;23;20127;-67
2022/07/07 07:26:18;;;;;;;11.00;1.95;;;;;;;;;;6182544;23;20421;-67
2022/07/07 07:28:44;;;;;;;11.05;2.40;;;;;;;;;;6184749;23;20004;-67
2022/07/07 07:31:10;;;;;;;12.52;2.15;;;;;;;;;;6184976;23;20019;-67
2022/07/07 07:33:36;;;;;;;15.93;2.28;;;;;;;;;;6184743;23;20412;-67
2022/07/07 07:36:03;;;;;;;12.48;2.20;;;;;;;;;;6159220;23;20009;-67
2022/07/07 07:38:30;;;;;;;10.40;1.80;;;;;;;;;;6184236;23;20047;-67
2022/07/07 07:40:56;;;;;;;7.70;2.30;;;;;;;;;;6185355;23;20004;-68
2022/07/07 07:43:22;;;;;;;7.53;1.90;;;;;;;;;;6181054;23;20004;-69
2022/07/07 07:45:48;;;;;;;11.32;2.20;;;;;;;;;;6152163;23;20399;-67
2022/07/07 07:48:14;;;;;;;7.40;2.05;;;;;;;;;;6171874;23;20009;-66
2022/07/07 07:50:40;;;;;;;9.70;1.95;;;;;;;;;;6163604;23;20329;-66
2022/07/07 07:53:06;;;;;;;11.38;1.80;;;;;;;;;;6161364;23;20223;-66
2022/07/07 07:55:33;;;;;;;11.10;1.75;;;;;;;;;;6188229;23;20002;-68
2022/07/07 07:57:59;;;;;;;9.63;1.80;;;;;;;;;;6177230;23;20004;-66
2022/07/07 08:00:25;;;;;;;10.38;2.08;;;;;;;;;;6184235;23;20004;-66
2022/07/07 08:02:51;;;;;;;12.35;2.10;;;;;;;;;;6186466;23;20004;-66
2022/07/07 08:05:18;;;;;;;14.90;2.30;;;;;;;;;;6156344;23;20466;-66
2022/07/07 08:07:44;;;;;;;16.50;2.28;;;;;;;;;;6185721;23;20016;-66
2022/07/07 08:10:11;;;;;;;9.55;1.85;;;;;;;;;;6185319;23;20020;-66
2022/07/07 08:12:37;;;;;;;12.05;2.08;;;;;;;;;;6185524;23;20028;-66
2022/07/07 08:15:04;;;;;;;10.23;2.00;;;;;;;;;;6183937;23;20520;-66
2022/07/07 08:17:31;;;;;;;13.35;2.33;;;;;;;;;;6183470;23;20070;-66
2022/07/07 08:19:57;;;;;;;12.90;1.90;;;;;;;;;;6185506;23;20005;-67
2022/07/07 08:22:23;;;;;;;11.68;2.25;;;;;;;;;;6148340;23;20024;-66
2022/07/07 08:24:53;;;;;;;13.63;2.35;;;;;;;;;;6119900;23;20537;-65
2022/07/07 08:27:20;;;;;;;12.40;2.40;;;;;;;;;;6158955;23;20008;-66
2022/07/07 08:29:46;;;;;;;13.85;1.98;;;;;;;;;;6119032;23;20009;-69
2022/07/07 08:32:13;;;;;;;16.98;2.50;;;;;;;;;;6145807;23;20494;-65
2022/07/07 08:34:40;;;;;;;9.85;2.00;;;;;;;;;;6146844;23;20012;-66
2022/07/07 08:37:06;;;;;;;10.82;1.83;;;;;;;;;;6148705;23;20528;-66
2022/07/07 08:39:33;;;;;;;7.57;2.10;;;;;;;;;;6145740;23;20127;-68
2022/07/07 08:42:00;;;;;;;12.57;2.35;;;;;;;;;;6150811;23;20494;-66
2022/07/07 08:44:26;;;;;;;10.75;2.10;;;;;;;;;;6164176;23;20087;-68
2022/07/07 08:46:53;;;;;;;10.13;1.90;;;;;;;;;;6179707;23;20031;-66
2022/07/07 08:49:19;;;;;;;11.57;1.95;;;;;;;;;;6179475;23;20342;-66
2022/07/07 08:51:48;;;;;;;11.07;2.10;;;;;;;;;;6184289;23;20016;-66
2022/07/07 08:54:16;;;;;;;12.63;2.00;;;;;;;;;;6183960;23;20051;-66
2022/07/07 08:56:43;;;;;;;10.05;1.90;;;;;;;;;;6186097;23;20005;-67
2022/07/07 08:59:10;;;;;;;8.80;1.58;;;;;;;;;;6159486;23;20027;-67
2022/07/07 09:01:36;;;;;;;8.95;1.70;;;;;;;;;;6188248;23;20012;-67
2022/07/07 09:04:06;;;;;;;10.50;1.80;;;;;;;;;;6156628;23;20030;-69
2022/07/07 09:06:32;;;;;;;6.50;1.60;;;;;;;;;;6185323;23;20342;-68
2022/07/07 09:09:01;;;;;;;11.05;1.80;;;;;;;;;;6182418;23;20327;-67
2022/07/07 09:11:28;;;;;;;7.60;1.65;;;;;;;;;;6181648;23;20032;-67
2022/07/07 09:14:14;;;;;;;10.95;1.77;;;;;;;;;;6155036;23;20103;-68
2022/07/07 09:16:40;;;;;;;11.55;2.03;;;;;;;;;;6157750;23;20036;-67
2022/07/07 09:19:27;;;;;;;7.78;1.70;;;;;;;;;;6183522;23;20011;-66
2022/07/07 09:21:53;;;;;;;7.22;1.40;;;;;;;;;;6181734;23;20008;-68
2022/07/07 09:24:19;;;;;;;7.90;1.75;;;;;;;;;;6180467;23;20090;-66
2022/07/07 09:26:47;;;;;;;7.93;1.70;;;;;;;;;;6156337;23;20012;-69
2022/07/07 09:29:14;;;;;;;9.23;1.55;;;;;;;;;;6179890;23;20352;-69
2022/07/07 09:31:55;;;;;;;7.18;1.70;;;;;;;;;;6184272;23;20857;-67
2022/07/07 09:34:23;;;;;;;8.60;2.25;;;;;;;;;;6178600;23;20011;-67
2022/07/07 09:39:35;;;;;;;;;;;;;;;;;;6123870;23;20131;-69
2022/07/07 09:42:16;;;;;;;6.97;1.63;;;;;;;;;;6186265;23;20002;-69
2022/07/07 09:44:42;;;;;;;8.50;1.73;;;;;;;;;;6167649;23;20487;-70
2022/07/07 09:47:09;;;;;;;8.25;1.80;;;;;;;;;;6152133;23;20111;-70
2022/07/07 09:49:41;;;;;;;12.38;2.05;;;;;;;;;;6185819;23;20074;-69
2022/07/07 09:52:17;;;;;;;8.88;1.60;;;;;;;;;;6188318;23;20008;-69
2022/07/07 09:54:48;;;;;;;15.27;1.98;;;;;;;;;;6187775;23;20334;-69
2022/07/07 09:57:14;;;;;;;14.10;2.25;;;;;;;;;;6159148;23;20617;-69
2022/07/07 09:59:41;;;;;;;12.10;2.15;;;;;;;;;;6187826;23;20075;-69
2022/07/07 10:02:11;;;;;;;9.40;1.95;;;;;;;;;;6187548;23;20380;-67
2022/07/07 10:04:37;;;;;;;11.20;2.17;;;;;;;;;;6187563;23;20005;-68
2022/07/07 10:07:03;;;;;;;18.38;2.63;;;;;;;;;;6188191;23;20324;-66
2022/07/07 10:09:29;;;;;;;12.15;2.10;;;;;;;;;;6157285;23;20532;-66
2022/07/07 10:11:56;;;;;;;12.80;2.47;;;;;;;;;;6186996;23;20032;-66
2022/07/07 10:14:31;;;;;;;9.68;2.13;;;;;;;;;;6184573;23;20522;-66
2022/07/07 10:16:57;;;;;;;12.63;2.25;;;;;;;;;;6189347;23;20015;-66
2022/07/07 10:19:25;;;;;;;12.30;2.30;;;;;;;;;;6159051;23;20223;-66
2022/07/07 10:21:52;;;;;;;12.05;2.20;;;;;;;;;;6162652;23;20007;-66
2022/07/07 10:24:19;;;;;;;11.45;2.08;;;;;;;;;;6126804;23;20009;-65
2022/07/07 10:26:50;;;;;;;9.18;1.90;;;;;;;;;;6149060;23;20423;-68
2022/07/07 10:29:16;;;;;;;9.63;1.90;;;;;;;;;;6151919;23;20040;-68
2022/07/07 10:31:49;;;;;;;11.95;2.25;;;;;;;;;;6122525;23;20012;-67
2022/07/07 10:34:15;;;;;;;9.88;2.00;;;;;;;;;;6147018;23;20032;-64
2022/07/07 10:36:48;;;;;;;9.65;1.80;;;;;;;;;;6122532;23;20467;-62
2022/07/07 10:39:14;;;;;;;9.93;1.83;;;;;;;;;;6119839;23;20340;-62
2022/07/07 10:41:42;;;;;;;13.88;2.00;;;;;;;;;;6150316;23;20005;-62
2022/07/07 10:44:11;;;;;;;9.65;2.25;;;;;;;;;;6164562;23;20008;-63
2022/07/07 10:46:39;;;;;;;10.55;2.00;;;;;;;;;;6178504;23;20472;-62
2022/07/07 10:49:12;;;;;;;11.30;2.22;;;;;;;;;;6179912;23;20099;-62
2022/07/07 10:51:52;;;;;;;9.82;2.00;;;;;;;;;;6180393;23;20011;-63
2022/07/07 10:54:31;;;;;;;11.25;2.17;;;;;;;;;;6153392;23;20503;-62
2022/07/07 10:56:59;;;;;;;11.23;2.17;;;;;;;;;;6178982;23;20008;-62
2022/07/07 10:59:25;;;;;;;11.23;2.10;;;;;;;;;;6178115;23;20000;-64
2022/07/07 11:02:01;;;;;;;12.45;2.30;;;;;;;;;;6181469;23;20012;-64
2022/07/07 11:04:48;;;;;;;13.10;2.55;;;;;;;;;;6154283;23;20455;-64
2022/07/07 11:07:16;;;;;;;14.18;2.47;;;;;;;;;;6151575;23;20466;-64
2022/07/07 11:09:57;;;;;;;10.07;2.25;;;;;;;;;;6153161;23;20640;-64
2022/07/07 11:12:37;;;;;;;14.10;2.55;;;;;;;;;;6180531;23;20259;-64
2022/07/07 11:15:32;;;;;;;12.77;2.38;;;;;;;;;;6180212;23;20016;-64
2022/07/07 11:18:00;;;;;;;11.38;2.28;;;;;;;;;;6121988;23;20009;-62
2022/07/07 11:20:27;;;;;;;11.23;1.83;;;;;;;;;;6153496;23;20011;-63
2022/07/07 11:23:07;;;;;;;10.90;2.30;;;;;;;;;;6180411;23;20004;-63
2022/07/07 11:25:34;;;;;;;13.45;2.47;;;;;;;;;;6178683;23;20464;-63
2022/07/07 11:28:01;;;;;;;14.15;2.53;;;;;;;;;;6181524;23;20328;-63
2022/07/07 11:30:28;;;;;;;10.52;2.00;;;;;;;;;;6178670;23;20370;-63
2022/07/07 11:32:59;;;;;;;13.32;2.13;;;;;;;;;;6154324;23;20452;-62
2022/07/07 11:35:29;;;;;;;9.43;1.90;;;;;;;;;;6150609;23;20016;-63
2022/07/07 11:37:55;;;;;;;14.88;2.40;;;;;;;;;;6153437;23;20004;-63
2022/07/07 11:40:21;;;;;;;11.02;2.28;;;;;;;;;;6152331;23;20936;-63
2022/07/07 11:42:47;;;;;;;13.10;2.55;;;;;;;;;;6182543;23;20076;-63
2022/07/07 11:45:20;;;;;;;10.43;2.40;;;;;;;;;;6153119;23;20016;-64
2022/07/07 11:47:47;;;;;;;11.07;2.47;;;;;;;;;;6166880;23;20009;-63
2022/07/07 11:50:13;;;;;;;10.10;2.40;;;;;;;;;;6184941;23;20416;-64
2022/07/07 11:52:46;;;;;;;11.27;2.20;;;;;;;;;;6159672;23;20008;-64
2022/07/07 11:55:13;;;;;;;11.25;2.05;;;;;;;;;;6157705;23;20107;-65
2022/07/07 11:57:40;;;;;;;14.52;2.40;;;;;;;;;;6186837;23;19996;-65
2022/07/07 12:00:13;;;;;;;7.68;1.77;;;;;;;;;;6159389;23;20058;-65
2022/07/07 12:02:40;;;;;;;14.68;2.55;;;;;;;;;;6186790;23;20005;-65
2022/07/07 12:05:06;;;;;;;14.48;2.42;;;;;;;;;;6185340;23;20494;-64
2022/07/07 12:07:33;;;;;;;9.43;2.20;;;;;;;;;;6184557;23;20023;-63
2022/07/07 12:09:59;;;;;;;12.40;2.63;;;;;;;;;;6185329;23;20016;-63
2022/07/07 12:12:25;;;;;;;16.60;2.20;;;;;;;;;;6182959;23;20004;-66
2022/07/07 12:14:52;;;;;;;15.13;2.30;;;;;;;;;;6158200;23;20019;-66
2022/07/07 12:17:37;;;;;;;18.25;2.53;;;;;;;;;;6184002;23;20032;-66
2022/07/07 12:20:04;;;;;;;15.60;2.90;;;;;;;;;;6157804;23;20454;-66
2022/07/07 12:22:34;;;;;;;12.20;2.50;;;;;;;;;;6147098;23;20005;-65
2022/07/07 12:25:05;;;;;;;9.45;2.80;;;;;;;;;;6149860;23;20071;-65
2022/07/07 12:27:31;;;;;;;12.23;2.58;;;;;;;;;;6145533;23;20012;-65
2022/07/07 12:30:01;;;;;;;11.93;2.10;;;;;;;;;;6118681;23;20024;-65
2022/07/07 12:32:27;;;;;;;12.35;2.25;;;;;;;;;;6145632;23;20009;-65
2022/07/07 12:34:53;;;;;;;10.57;2.10;;;;;;;;;;6147053;23;20005;-66
2022/07/07 12:37:20;;;;;;;13.07;2.10;;;;;;;;;;6119961;23;20004;-66
2022/07/07 12:39:50;;;;;;;12.55;2.67;;;;;;;;;;6146310;23;20127;-65
2022/07/07 12:42:25;;;;;;;27.80;3.10;;;;;;;;;;6114548;23;20554;-65
2022/07/07 12:44:51;;;;;;;12.75;2.10;;;;;;;;;;6170847;23;20520;-65
2022/07/07 12:47:28;;;;;;;14.85;2.35;;;;;;;;;;6177786;23;20028;-66
2022/07/07 12:49:57;;;;;;;12.48;2.25;;;;;;;;;;6180710;23;20019;-66
2022/07/07 12:52:24;;;;;;;9.63;2.10;;;;;;;;;;6149920;23;20095;-66
2022/07/07 12:54:55;;;;;;;8.98;1.95;;;;;;;;;;6153892;23;20017;-67
2022/07/07 12:57:25;;;;;;;9.05;1.90;;;;;;;;;;6179537;23;20445;-67
2022/07/07 12:59:51;;;;;;;13.50;2.10;;;;;;;;;;6182488;23;20005;-67
2022/07/07 13:02:17;;;;;;;9.00;2.08;;;;;;;;;;6179293;23;20024;-69
2022/07/07 13:04:43;;;;;;;10.80;2.00;;;;;;;;;;6183047;23;20107;-67
2022/07/07 13:07:10;;;;;;;8.27;1.95;;;;;;;;;;6155257;23;20040;-67
2022/07/07 13:09:36;;;;;;;9.48;1.70;;;;;;;;;;6181629;23;20073;-67
2022/07/07 13:12:03;;;;;;;14.88;1.85;;;;;;;;;;6181093;23;20015;-71
2022/07/07 13:14:30;;;;;;;13.23;2.10;;;;;;;;;;6178371;23;20016;-71
2022/07/07 13:16:56;;;;;;;9.88;1.90;;;;;;;;;;6179182;23;20031;-71
2022/07/07 13:19:22;;;;;;;12.45;2.03;;;;;;;;;;6152723;23;20435;-71
2022/07/07 13:21:48;;;;;;;10.13;2.10;;;;;;;;;;6181457;23;20001;-68
2022/07/07 13:24:14;;;;;;;13.98;2.50;;;;;;;;;;6179178;23;20010;-71
2022/07/07 13:26:41;;;;;;;12.50;2.15;;;;;;;;;;6181441;23;20016;-71
2022/07/07 13:29:07;;;;;;;10.57;2.33;;;;;;;;;;6180910;23;20004;-72
2022/07/07 13:31:38;;;;;;;10.75;1.92;;;;;;;;;;6180005;23;20012;-72
2022/07/07 13:34:04;;;;;;;8.75;1.85;;;;;;;;;;6181660;23;20014;-72
2022/07/07 13:36:30;;;;;;;9.07;1.90;;;;;;;;;;6179467;23;20043;-72
2022/07/07 13:38:57;;;;;;;6.88;1.63;;;;;;;;;;6183651;23;20083;-72
2022/07/07 13:41:23;;;;;;;9.68;1.88;;;;;;;;;;6180148;23;20068;-67
2022/07/07 13:43:49;;;;;;;21.13;2.67;;;;;;;;;;6154037;23;20035;-68
2022/07/07 13:46:15;;;;;;;14.98;2.58;;;;;;;;;;6120735;23;20707;-71
2022/07/07 13:48:41;;;;;;;14.18;2.20;;;;;;;;;;6152422;23;20017;-69
2022/07/07 13:51:07;;;;;;;12.80;2.45;;;;;;;;;;6188432;23;20039;-71
2022/07/07 13:53:34;;;;;;;11.55;2.30;;;;;;;;;;6186765;23;20009;-70
2022/07/07 13:56:00;;;;;;;10.88;2.17;;;;;;;;;;6188574;23;20471;-70
2022/07/07 13:58:26;;;;;;;9.70;2.10;;;;;;;;;;6187050;23;20000;-68
2022/07/07 14:00:52;;;;;;;9.23;1.83;;;;;;;;;;6193080;23;20020;-72
2022/07/07 14:03:18;;;;;;;14.00;2.22;;;;;;;;;;6186186;23;20028;-69
2022/07/07 14:05:44;;;;;;;11.27;2.00;;;;;;;;;;6161652;23;20228;-73
2022/07/07 14:08:11;;;;;;;9.50;1.88;;;;;;;;;;6188663;23;20247;-71
2022/07/07 14:10:37;;;;;;;9.13;2.00;;;;;;;;;;6188035;23;20007;-73
2022/07/07 14:13:03;;;;;;;9.85;2.00;;;;;;;;;;6189047;23;20005;-71
2022/07/07 14:15:29;;;;;;;8.95;1.80;;;;;;;;;;6158682;23;20032;-70
2022/07/07 14:17:55;;;;;;;9.55;2.05;;;;;;;;;;6162952;23;20328;-73
2022/07/07 14:20:22;;;;;;;14.55;2.53;;;;;;;;;;6154824;23;20015;-71
2022/07/07 14:22:48;;;;;;;13.13;2.20;;;;;;;;;;6123705;23;20467;-72
2022/07/07 14:25:15;;;;;;;10.05;2.35;;;;;;;;;;6146128;23;20031;-72
2022/07/07 14:27:41;;;;;;;13.02;2.50;;;;;;;;;;6147760;23;20016;-71
2022/07/07 14:30:07;;;;;;;10.55;2.00;;;;;;;;;;6149998;23;20151;-72
2022/07/07 14:32:33;;;;;;;10.23;1.92;;;;;;;;;;6146881;23;20032;-73
2022/07/07 14:35:00;;;;;;;9.18;2.08;;;;;;;;;;6151543;23;20077;-72
2022/07/07 14:37:26;;;;;;;13.07;2.40;;;;;;;;;;6145068;23;20011;-74
2022/07/07 14:39:53;;;;;;;10.30;1.83;;;;;;;;;;6148414;23;20009;-73